createdAt,value
2019-04-26T00:00:55.426Z,54.05
2019-04-26T00:03:28.959Z,54.82
2019-04-26T00:05:58.691Z,54.14
2019-04-26T00:08:28.145Z,55.11
2019-04-26T00:11:05.366Z,56.95
2019-04-26T00:16:46.551Z,57.68
2019-04-26T00:19:16.016Z,53.86
2019-04-26T00:21:45.694Z,55.16
2019-04-26T00:24:17.247Z,56.80
2019-04-26T00:26:46.749Z,57.24
2019-04-26T00:29:16.870Z,57.04
2019-04-26T00:31:46.311Z,57.59
2019-04-26T00:34:15.763Z,52.93
2019-04-26T00:36:45.156Z,54.54
2019-04-26T00:39:14.534Z,56.09
2019-04-26T00:41:44.137Z,58.41
2019-04-26T00:44:14.848Z,58.13
2019-04-26T00:46:45.907Z,57.61
2019-04-26T00:49:17.029Z,57.39
2019-04-26T00:51:47.554Z,58.02
2019-04-26T00:54:18.578Z,57.93
2019-04-26T00:56:48.507Z,57.31
2019-04-26T00:59:18.467Z,57.08
2019-04-26T01:01:49.450Z,58.44
2019-04-26T01:04:18.915Z,57.94
2019-04-26T01:06:49.922Z,57.78
2019-04-26T01:09:19.685Z,56.65
2019-04-26T01:11:49.067Z,59.19
2019-04-26T01:14:18.453Z,58.43
2019-04-26T01:16:48.468Z,58.31
2019-04-26T01:19:18.632Z,57.41
2019-04-26T01:21:53.975Z,57.03
2019-04-26T01:24:25.426Z,56.88
2019-04-26T01:26:57.884Z,57.81
2019-04-26T01:29:28.042Z,57.28
2019-04-26T01:32:14.739Z,57.62
2019-04-26T01:37:33.603Z,59.41
2019-04-26T01:40:07.470Z,59.76
2019-04-26T01:42:46.806Z,57.36
2019-04-26T01:45:22.151Z,59.48
2019-04-26T01:47:54.576Z,59.42
2019-04-26T01:50:27.609Z,58.51
2019-04-26T01:52:58.538Z,59.23
2019-04-26T01:55:31.215Z,58.29
2019-04-26T01:58:04.761Z,57.80
2019-04-26T02:00:45.727Z,59.12
2019-04-26T02:03:19.925Z,57.74
2019-04-26T02:05:49.554Z,57.47
2019-04-26T02:08:19.432Z,51.05
2019-04-26T02:10:49.735Z,53.31
2019-04-26T02:13:19.986Z,52.98
2019-04-26T02:15:50.185Z,57.94
2019-04-26T02:18:20.499Z,52.13
2019-04-26T02:20:57.611Z,57.57
2019-04-26T02:23:28.635Z,55.12
2019-04-26T02:25:59.728Z,57.56
2019-04-26T02:28:29.119Z,58.07
2019-04-26T02:30:58.684Z,58.81
2019-04-26T02:33:29.683Z,59.42
2019-04-26T02:35:59.355Z,59.66
2019-04-26T02:38:30.949Z,59.27
2019-04-26T02:41:00.517Z,58.93
2019-04-26T02:43:31.786Z,60.19
2019-04-26T02:46:08.633Z,58.74
2019-04-26T02:48:51.646Z,58.93
2019-04-26T02:51:34.196Z,58.88
2019-04-26T02:54:10.210Z,53.03
2019-04-26T02:56:41.823Z,53.35
2019-04-26T02:59:23.014Z,57.35
2019-04-26T03:01:55.321Z,57.43
2019-04-26T03:04:30.191Z,57.64
2019-04-26T03:07:03.909Z,59.13
2019-04-26T03:09:37.038Z,59.13
2019-04-26T03:12:15.239Z,60.46
2019-04-26T03:14:49.316Z,60.42
2019-04-26T03:17:36.205Z,61.51
2019-04-26T03:20:13.631Z,60.25
2019-04-26T03:22:48.697Z,59.89
2019-04-26T03:25:21.130Z,59.40
2019-04-26T03:28:09.697Z,59.94
2019-04-26T03:31:00.115Z,59.15
2019-04-26T03:33:53.604Z,61.34
2019-04-26T03:36:44.464Z,58.71
2019-04-26T03:39:30.338Z,60.80
2019-04-26T03:42:13.139Z,61.28
2019-04-26T03:44:45.572Z,54.03
2019-04-26T03:47:18.020Z,60.45
2019-04-26T03:50:02.194Z,61.27
2019-04-26T03:53:04.637Z,60.48
2019-04-26T03:55:40.236Z,61.52
2019-04-26T03:58:29.227Z,60.54
2019-04-26T04:01:03.772Z,60.48
2019-04-26T04:03:49.312Z,60.83
2019-04-26T04:06:23.386Z,60.26
2019-04-26T04:08:58.479Z,59.44
2019-04-26T04:11:38.607Z,58.48
2019-04-26T04:14:14.889Z,58.79
2019-04-26T04:16:51.799Z,59.02
2019-04-26T04:19:56.760Z,58.42
2019-04-26T04:22:29.219Z,58.91
2019-04-26T04:25:04.572Z,56.50
2019-04-26T04:27:38.094Z,57.36
2019-04-26T04:30:23.023Z,58.17
2019-04-26T04:32:58.267Z,59.85
2019-04-26T04:35:30.717Z,60.02
2019-04-26T04:38:19.705Z,60.12
2019-04-26T04:41:12.707Z,62.58
2019-04-26T04:43:48.777Z,62.20
2019-04-26T04:47:02.734Z,61.31
2019-04-26T04:49:58.023Z,61.17
2019-04-26T04:52:48.203Z,61.86
2019-04-26T04:55:29.429Z,62.93
2019-04-26T04:58:10.945Z,62.66
2019-04-26T05:01:18.878Z,62.42
2019-04-26T05:04:13.611Z,62.95
2019-04-26T05:07:10.636Z,61.83
2019-04-26T05:09:45.942Z,63.26
2019-04-26T05:12:21.096Z,63.93
2019-04-26T05:15:29.204Z,63.23
2019-04-26T05:18:17.912Z,63.22
2019-04-26T05:20:51.267Z,63.36
2019-04-26T05:23:35.283Z,64.22
2019-04-26T05:26:30.099Z,64.40
2019-04-26T05:29:35.378Z,64.43
2019-04-26T05:32:16.582Z,65.19
2019-04-26T05:34:50.777Z,65.17
2019-04-26T05:37:40.911Z,64.26
2019-04-26T05:40:30.156Z,60.17
2019-04-26T05:43:07.139Z,64.20
2019-04-26T05:46:00.241Z,63.59
2019-04-26T05:49:05.534Z,64.76
2019-04-26T05:52:13.584Z,65.16
2019-04-26T05:54:58.803Z,63.94
2019-04-26T05:57:44.608Z,64.45
2019-04-26T06:00:24.145Z,64.63
2019-04-26T06:03:01.339Z,64.17
2019-04-26T06:05:50.962Z,63.40
2019-04-26T06:08:33.865Z,62.37
2019-04-26T06:11:23.696Z,64.07
2019-04-26T06:14:34.287Z,64.41
2019-04-26T06:17:22.830Z,64.98
2019-04-26T06:20:05.615Z,64.07
2019-04-26T06:22:46.800Z,60.80
2019-04-26T06:25:26.591Z,60.80
2019-04-26T06:28:05.622Z,60.00
2019-04-26T06:30:45.504Z,63.21
2019-04-26T06:33:15.284Z,65.49
2019-04-26T06:35:48.864Z,66.10
2019-04-26T06:38:43.788Z,64.03
2019-04-26T06:41:21.869Z,62.38
2019-04-26T06:44:11.076Z,65.63
2019-04-26T06:46:50.731Z,65.41
2019-04-26T06:49:24.816Z,63.12
2019-04-26T06:52:00.425Z,60.99
2019-04-26T06:54:32.850Z,55.85
2019-04-26T06:57:35.170Z,58.21
2019-04-26T07:00:11.600Z,56.00
2019-04-26T07:03:02.165Z,58.31
2019-04-26T07:05:34.623Z,59.28
2019-04-26T07:08:18.949Z,59.13
2019-04-26T07:11:39.768Z,59.98
2019-04-26T07:14:18.182Z,58.91
2019-04-26T07:16:50.628Z,57.87
2019-04-26T07:19:50.297Z,62.29
2019-04-26T07:23:02.084Z,59.44
2019-04-26T07:26:03.802Z,58.93
2019-04-26T07:28:51.446Z,57.20
2019-04-26T07:31:52.479Z,61.33
2019-04-26T07:34:44.888Z,60.75
2019-04-26T07:37:20.131Z,60.74
2019-04-26T07:40:11.838Z,59.18
2019-04-26T07:43:17.337Z,59.74
2019-04-26T07:46:06.328Z,58.57
2019-04-26T07:48:55.083Z,56.70
2019-04-26T07:51:50.314Z,56.88
2019-04-26T07:54:40.794Z,57.81
2019-04-26T07:57:48.923Z,59.10
2019-04-26T08:00:44.783Z,59.33
2019-04-26T08:03:16.114Z,59.57
2019-04-26T08:06:05.791Z,59.27
2019-04-26T08:08:38.234Z,58.37
2019-04-26T08:11:22.566Z,58.08
2019-04-26T08:14:13.239Z,58.35
2019-04-26T08:17:08.207Z,57.24
2019-04-26T08:19:46.388Z,56.82
2019-04-26T08:22:22.857Z,55.06
2019-04-26T08:24:52.756Z,55.77
2019-04-26T08:27:25.204Z,57.21
2019-04-26T08:30:03.418Z,56.68
2019-04-26T08:32:35.637Z,56.03
2019-04-26T08:35:18.549Z,56.60
2019-04-26T08:37:52.689Z,55.29
2019-04-26T08:40:30.929Z,52.33
2019-04-26T08:43:03.708Z,52.74
2019-04-26T08:45:37.567Z,53.99
2019-04-26T08:48:29.420Z,50.64
2019-04-26T08:51:09.512Z,51.88
2019-04-26T08:53:42.102Z,50.71
2019-04-26T08:56:15.312Z,50.06
2019-04-26T08:58:47.855Z,49.50
2019-04-26T09:01:21.940Z,50.84
2019-04-26T09:03:56.005Z,50.37
2019-04-26T09:06:34.786Z,47.20
2019-04-26T09:09:08.873Z,47.20
2019-04-26T09:11:40.966Z,49.33
2019-04-26T09:14:11.097Z,48.13
2019-04-26T09:16:50.184Z,48.38
2019-04-26T09:19:12.773Z,48.12
2019-04-26T09:21:47.483Z,45.64
2019-04-26T09:24:21.088Z,44.45
2019-04-26T09:26:53.009Z,44.05
2019-04-26T09:29:26.417Z,44.13
2019-04-26T09:31:59.262Z,39.19
2019-04-26T09:34:33.688Z,36.71
2019-04-26T09:37:03.076Z,35.80
2019-04-26T09:39:32.604Z,37.58
2019-04-26T09:42:19.650Z,36.72
2019-04-26T09:44:50.668Z,35.22
2019-04-26T09:47:37.685Z,34.91
2019-04-26T09:50:11.344Z,37.26
2019-04-26T09:52:44.897Z,36.74
2019-04-26T09:55:14.413Z,37.78
2019-04-26T09:57:43.812Z,36.81
2019-04-26T10:00:15.788Z,36.77
2019-04-26T10:02:45.387Z,40.18
2019-04-26T10:05:17.705Z,38.94
2019-04-26T10:07:46.104Z,38.09
2019-04-26T10:10:23.112Z,37.13
2019-04-26T10:13:06.923Z,38.59
2019-04-26T10:15:43.839Z,39.42
2019-04-26T10:18:14.863Z,39.00
2019-04-26T10:20:44.324Z,39.33
2019-04-26T10:23:13.778Z,39.16
2019-04-26T10:25:43.246Z,40.68
2019-04-26T10:28:15.951Z,39.54
2019-04-26T10:30:44.028Z,39.45
2019-04-26T10:33:13.426Z,40.11
2019-04-26T10:35:42.961Z,40.41
2019-04-26T10:38:12.350Z,38.26
2019-04-26T10:40:41.810Z,36.57
2019-04-26T10:43:11.658Z,39.71
2019-04-26T10:45:45.430Z,39.10
2019-04-26T10:48:15.242Z,37.91
2019-04-26T10:50:44.827Z,38.58
2019-04-26T10:53:21.602Z,40.42
2019-04-26T10:56:07.510Z,39.66
2019-04-26T10:58:55.037Z,41.18
2019-04-26T11:01:24.579Z,41.25
2019-04-26T11:03:54.045Z,41.40
2019-04-26T11:06:24.130Z,41.56
2019-04-26T11:08:54.772Z,42.14
2019-04-26T11:11:24.239Z,41.33
2019-04-26T11:13:53.695Z,40.50
2019-04-26T11:16:23.230Z,41.90
2019-04-26T11:18:52.618Z,41.40
2019-04-26T11:21:22.463Z,41.82
2019-04-26T11:23:51.885Z,41.78
2019-04-26T11:26:21.274Z,40.56
2019-04-26T11:28:51.285Z,39.49
2019-04-26T11:31:23.278Z,40.76
2019-04-26T11:34:04.446Z,41.28
2019-04-26T11:36:24.078Z,40.89
2019-04-26T11:38:53.581Z,40.42
2019-04-26T11:41:22.934Z,39.66
2019-04-26T11:43:53.001Z,38.35
2019-04-26T11:46:29.246Z,37.32
2019-04-26T11:48:59.229Z,37.51
2019-04-26T11:51:27.603Z,36.49
2019-04-26T11:53:56.737Z,35.64
2019-04-26T11:56:26.143Z,35.21
2019-04-26T11:58:56.838Z,35.23
2019-04-26T12:01:28.389Z,34.79
2019-04-26T12:04:15.865Z,33.40
2019-04-26T12:06:49.857Z,34.25
2019-04-26T12:09:24.712Z,34.98
2019-04-26T12:12:04.455Z,32.60
2019-04-26T12:14:25.264Z,33.30
2019-04-26T12:16:58.896Z,32.69
2019-04-26T12:19:25.741Z,33.90
2019-04-26T12:21:55.174Z,33.29
2019-04-26T12:24:29.678Z,33.40
2019-04-26T12:26:57.591Z,32.48
2019-04-26T12:29:26.983Z,31.46
2019-04-26T12:31:56.370Z,31.98
2019-04-26T12:34:26.098Z,33.66
2019-04-26T12:36:55.478Z,30.58
2019-04-26T12:39:25.349Z,29.87
2019-04-26T12:41:54.754Z,30.88
2019-04-26T12:44:25.852Z,31.78
2019-04-26T12:46:59.358Z,31.46
2019-04-26T12:49:27.971Z,30.04
2019-04-26T12:51:57.376Z,30.50
2019-04-26T12:54:26.761Z,30.46
2019-04-26T12:56:56.180Z,30.91
2019-04-26T12:59:26.503Z,33.88
2019-04-26T13:02:05.580Z,30.67
2019-04-26T13:04:36.004Z,31.10
2019-04-26T13:07:07.088Z,31.71
2019-04-26T13:09:37.280Z,32.16
2019-04-26T13:12:14.319Z,31.80
2019-04-26T13:14:45.420Z,31.53
2019-04-26T13:17:35.630Z,30.92
2019-04-26T13:20:03.977Z,30.62
2019-04-26T13:22:45.408Z,31.70
2019-04-26T13:25:15.354Z,32.79
2019-04-26T13:27:37.545Z,32.12
2019-04-26T13:30:10.694Z,31.11
2019-04-26T13:32:38.671Z,29.84
2019-04-26T13:35:11.277Z,28.28
2019-04-26T13:37:39.280Z,30.97
2019-04-26T13:40:08.748Z,30.87
2019-04-26T13:42:38.201Z,31.51
2019-04-26T13:45:14.967Z,31.50
2019-04-26T13:47:48.691Z,31.33
2019-04-26T13:50:26.652Z,32.38
2019-04-26T13:52:56.869Z,32.66
2019-04-26T13:55:29.461Z,32.24
2019-04-26T13:57:57.424Z,32.38
2019-04-26T14:00:28.513Z,33.40
2019-04-26T14:02:58.271Z,32.15
2019-04-26T14:05:27.720Z,32.36
2019-04-26T14:07:57.118Z,32.86
2019-04-26T14:10:26.520Z,33.38
2019-04-26T14:12:55.913Z,33.72
2019-04-26T14:15:25.330Z,33.71
2019-04-26T14:17:54.771Z,33.71
2019-04-26T14:20:24.493Z,32.09
2019-04-26T14:22:58.498Z,30.98
2019-04-26T14:25:30.704Z,32.66
2019-04-26T14:28:00.205Z,29.93
2019-04-26T14:30:29.591Z,31.34
2019-04-26T14:32:58.976Z,31.31
2019-04-26T14:35:28.378Z,30.69
2019-04-26T14:37:57.765Z,31.21
2019-04-26T14:40:27.203Z,31.17
2019-04-26T14:43:06.654Z,31.13
2019-04-26T14:45:27.760Z,31.24
2019-04-26T14:48:00.272Z,32.35
2019-04-26T14:50:31.930Z,31.90
2019-04-26T14:53:02.272Z,30.54
2019-04-26T14:55:30.568Z,31.94
2019-04-26T14:57:59.965Z,31.34
2019-04-26T15:00:30.985Z,31.22
2019-04-26T15:03:07.932Z,30.71
2019-04-26T15:05:45.173Z,31.12
2019-04-26T15:08:13.375Z,32.61
2019-04-26T15:10:46.686Z,31.77
2019-04-26T15:13:19.969Z,32.02
2019-04-26T15:15:46.286Z,31.57
2019-04-26T15:18:16.803Z,30.86
2019-04-26T15:20:46.255Z,31.57
2019-04-26T15:23:19.450Z,31.42
2019-04-26T15:25:48.846Z,32.89
2019-04-26T15:28:17.842Z,30.65
2019-04-26T15:30:47.298Z,31.19
2019-04-26T15:33:16.749Z,31.44
2019-04-26T15:35:47.216Z,31.32
2019-04-26T15:38:16.663Z,31.28
2019-04-26T15:40:53.404Z,30.71
2019-04-26T15:43:27.120Z,31.77
2019-04-26T15:46:08.178Z,31.56
2019-04-26T15:48:39.286Z,33.07
2019-04-26T15:51:09.125Z,33.39
2019-04-26T15:53:38.522Z,33.92
2019-04-26T15:56:10.085Z,34.51
2019-04-26T15:58:47.247Z,34.11
2019-04-26T16:01:10.856Z,35.29
2019-04-26T16:03:44.554Z,33.97
2019-04-26T16:06:12.652Z,34.31
2019-04-26T16:08:43.776Z,33.27
2019-04-26T16:11:13.356Z,34.66
2019-04-26T16:13:45.244Z,33.85
2019-04-26T16:16:16.400Z,34.85
2019-04-26T16:18:49.891Z,34.89
2019-04-26T16:21:17.964Z,34.27
2019-04-26T16:23:53.023Z,34.54
2019-04-26T16:26:19.208Z,33.14
2019-04-26T16:28:50.232Z,33.22
2019-04-26T16:31:27.255Z,32.78
2019-04-26T16:33:58.283Z,33.62
2019-04-26T16:36:27.683Z,32.84
2019-04-26T16:38:58.053Z,32.72
2019-04-26T16:41:27.510Z,32.31
2019-04-26T16:43:58.837Z,32.53
2019-04-26T16:46:28.219Z,33.30
2019-04-26T16:49:03.760Z,33.38
2019-04-26T16:51:28.700Z,33.54
2019-04-26T16:56:29.262Z,34.30
2019-04-26T16:58:58.653Z,33.68
2019-04-26T17:01:28.052Z,34.30
2019-04-26T17:03:57.450Z,34.79
2019-04-26T17:06:26.828Z,34.56
2019-04-26T17:09:01.149Z,34.97
2019-04-26T17:09:38.414Z,34.19
2019-04-26T17:11:30.209Z,35.63
2019-04-26T17:14:04.084Z,35.69
2019-04-26T17:16:33.959Z,36.00
2019-04-26T17:19:00.750Z,36.46
2019-04-26T17:21:34.503Z,36.28
2019-04-26T17:24:22.852Z,36.45
2019-04-26T17:26:53.948Z,36.82
2019-04-26T17:29:23.840Z,36.74
2019-04-26T17:31:54.070Z,38.20
2019-04-26T17:34:29.016Z,37.84
2019-04-26T17:36:55.475Z,37.99
2019-04-26T17:39:24.916Z,38.63
2019-04-26T17:41:55.166Z,37.78
2019-04-26T17:44:26.677Z,37.67
2019-04-26T17:46:59.712Z,39.77
2019-04-26T17:49:29.331Z,43.15
2019-04-26T17:52:01.911Z,41.65
2019-04-26T17:54:43.812Z,41.56
2019-04-26T17:57:04.479Z,40.18
2019-04-26T17:59:36.356Z,40.34
2019-04-26T18:02:18.083Z,39.20
2019-04-26T18:04:38.122Z,39.68
2019-04-26T18:07:36.420Z,39.51
2019-04-26T18:09:46.038Z,40.29
2019-04-26T18:12:11.896Z,40.09
2019-04-26T18:14:41.278Z,40.57
2019-04-26T18:17:12.314Z,40.78
2019-04-26T18:19:43.322Z,41.13
2019-04-26T18:22:14.688Z,41.26
2019-04-26T18:24:44.106Z,41.48
2019-04-26T18:27:14.805Z,41.41
2019-04-26T18:29:44.215Z,41.45
2019-04-26T18:32:13.604Z,42.34
2019-04-26T18:34:43.113Z,42.51
2019-04-26T18:37:13.269Z,42.33
2019-04-26T18:39:43.128Z,43.26
2019-04-26T18:42:13.949Z,42.39
2019-04-26T18:44:47.818Z,42.14
2019-04-26T18:47:26.282Z,42.99
2019-04-26T18:49:58.153Z,42.86
2019-04-26T18:52:26.329Z,43.19
2019-04-26T18:55:05.962Z,43.49
2019-04-26T18:57:35.356Z,43.50
2019-04-26T19:00:08.977Z,44.25
2019-04-26T19:02:40.023Z,44.67
2019-04-26T19:05:12.231Z,44.14
2019-04-26T19:07:40.811Z,44.26
2019-04-26T19:10:12.100Z,45.02
2019-04-26T19:12:43.716Z,44.80
2019-04-26T19:15:19.217Z,45.69
2019-04-26T19:17:53.344Z,45.34
2019-04-26T19:20:33.429Z,44.92
2019-04-26T19:23:04.366Z,44.75
2019-04-26T19:25:40.522Z,44.15
2019-04-26T19:28:08.132Z,43.98
2019-04-26T19:30:39.973Z,42.39
2019-04-26T19:33:11.583Z,43.38
2019-04-26T19:35:43.974Z,42.96
2019-04-26T19:38:14.425Z,43.17
2019-04-26T19:40:46.410Z,43.42
2019-04-26T19:43:27.709Z,42.49
2019-04-26T19:45:53.182Z,42.65
2019-04-26T19:48:32.870Z,44.26
2019-04-26T19:51:23.683Z,47.46
2019-04-26T19:53:54.604Z,47.54
2019-04-26T19:56:28.754Z,48.51
2019-04-26T19:58:58.752Z,48.94
2019-04-26T20:01:28.482Z,49.52
2019-04-26T20:03:57.957Z,50.46
2019-04-26T20:06:27.339Z,51.45
2019-04-26T20:08:56.734Z,52.23
2019-04-26T20:11:26.122Z,52.32
2019-04-26T20:13:55.743Z,53.81
2019-04-26T20:16:25.974Z,54.33
2019-04-26T20:18:55.516Z,53.65
2019-04-26T20:21:24.922Z,53.05
2019-04-26T20:23:54.665Z,52.55
2019-04-26T20:26:24.148Z,52.66
2019-04-26T20:28:53.561Z,50.55
2019-04-26T20:31:24.579Z,50.99
2019-04-26T20:33:54.216Z,50.27
2019-04-26T20:36:23.673Z,49.85
2019-04-26T20:38:53.075Z,48.20
2019-04-26T20:41:22.642Z,46.51
2019-04-26T20:44:04.464Z,45.95
2019-04-26T20:46:25.096Z,45.82
2019-04-26T20:48:54.249Z,46.60
2019-04-26T20:51:24.147Z,46.99
2019-04-26T20:53:53.845Z,47.11
2019-04-26T20:56:24.195Z,47.62
2019-04-26T20:58:53.578Z,47.62
2019-04-26T21:01:22.957Z,48.53
2019-04-26T21:03:52.437Z,49.43
2019-04-26T21:06:22.322Z,50.20
2019-04-26T21:08:53.941Z,50.54
2019-04-26T21:11:23.043Z,50.73
2019-04-26T21:13:52.560Z,51.01
2019-04-26T21:16:22.205Z,51.14
2019-04-26T21:18:52.423Z,50.28
2019-04-26T21:21:22.049Z,49.29
2019-04-26T21:23:52.106Z,49.79
2019-04-26T21:26:25.870Z,49.91
2019-04-26T21:29:08.402Z,49.02
2019-04-26T21:31:40.908Z,48.33
2019-04-26T21:34:15.135Z,48.27
2019-04-26T21:36:47.560Z,47.69
2019-04-26T21:39:24.791Z,48.92
2019-04-26T21:41:55.879Z,49.09
2019-04-26T21:44:25.260Z,49.21
2019-04-26T21:46:58.580Z,48.71
2019-04-26T21:49:26.065Z,47.44
2019-04-26T21:51:55.841Z,47.44
2019-04-26T21:54:25.391Z,47.10
2019-04-26T21:56:54.782Z,46.45
2019-04-26T21:59:24.463Z,46.01
2019-04-26T22:01:59.095Z,45.97
2019-04-26T22:04:28.756Z,47.29
2019-04-26T22:06:59.847Z,47.42
2019-04-26T22:09:34.982Z,47.45
2019-04-26T22:12:00.345Z,47.20
2019-04-26T22:14:31.433Z,45.77
2019-04-26T22:17:05.551Z,47.12
2019-04-26T22:19:36.564Z,46.48
2019-04-26T22:22:07.658Z,47.76
2019-04-26T22:24:39.660Z,47.86
2019-04-26T22:27:10.175Z,46.17
2019-04-26T22:29:39.624Z,49.26
2019-04-26T22:32:11.455Z,48.18
2019-04-26T22:34:42.793Z,47.39
2019-04-26T22:37:12.910Z,47.13
2019-04-26T22:39:44.358Z,46.96
2019-04-26T22:42:14.162Z,46.45
2019-04-26T22:44:45.200Z,45.42
2019-04-26T22:47:18.643Z,46.71
2019-04-26T22:49:48.100Z,47.91
2019-04-26T22:52:18.382Z,47.31
2019-04-26T22:54:48.320Z,48.60
2019-04-26T22:57:17.982Z,47.76
2019-04-26T22:59:50.541Z,46.68
2019-04-26T23:02:25.871Z,47.61
2019-04-26T23:04:50.910Z,48.46
2019-04-26T23:07:23.244Z,47.75
2019-04-26T23:09:53.453Z,48.29
2019-04-26T23:12:40.051Z,48.13
2019-04-26T23:15:23.943Z,47.04
2019-04-26T23:17:58.568Z,47.67
2019-04-26T23:20:34.286Z,47.25
2019-04-26T23:23:05.212Z,46.83
2019-04-26T23:25:34.469Z,46.27
2019-04-26T23:28:04.820Z,46.33
2019-04-26T23:30:34.275Z,45.93
2019-04-26T23:33:04.015Z,47.14
2019-04-26T23:35:37.436Z,47.18
2019-04-26T23:38:05.469Z,46.37
2019-04-26T23:40:35.004Z,45.19
2019-04-26T23:43:04.383Z,46.23
2019-04-26T23:45:34.043Z,46.26
2019-04-26T23:48:03.653Z,47.02
2019-04-26T23:50:34.066Z,46.32
2019-04-26T23:53:03.510Z,46.91
2019-04-26T23:55:33.813Z,46.36
2019-04-26T23:58:04.902Z,46.16
